sensor_id;sensor_type;location;lat;lon;timestamp;temperature;humidity
18043;DHT22;9146;48.074;11.968;2022-12-18T00:01:00;-6.10;99.90
18043;DHT22;9146;48.074;11.968;2022-12-18T00:03:31;-6.00;99.90
18043;DHT22;9146;48.074;11.968;2022-12-18T00:05:58;-6.00;99.90
18043;DHT22;9146;48.074;11.968;2022-12-18T00:08:25;-6.00;99.90
18043;DHT22;9146;48.074;11.968;2022-12-18T00:10:52;-6.00;99.90
18043;DHT22;9146;48.074;11.968;2022-12-18T00:13:20;-6.00;99.90
18043;DHT22;9146;48.074;11.968;2022-12-18T00:15:48;-6.00;99.90
18043;DHT22;9146;48.074;11.968;2022-12-18T00:18:15;-6.00;99.90
18043;DHT22;9146;48.074;11.968;2022-12-18T00:20:42;-5.90;99.90
18043;DHT22;9146;48.074;11.968;2022-12-18T00:23:09;-5.90;99.90
18043;DHT22;9146;48.074;11.968;2022-12-18T00:25:36;-5.90;99.90
18043;DHT22;9146;48.074;11.968;2022-12-18T00:28:04;-5.90;99.90
18043;DHT22;9146;48.074;11.968;2022-12-18T00:30:32;-5.90;99.90
18043;DHT22;9146;48.074;11.968;2022-12-18T00:32:59;-5.90;99.90
18043;DHT22;9146;48.074;11.968;2022-12-18T00:35:26;-5.80;99.90
18043;DHT22;9146;48.074;11.968;2022-12-18T00:37:53;-5.80;99.90
18043;DHT22;9146;48.074;11.968;2022-12-18T00:40:20;-5.80;99.90
18043;DHT22;9146;48.074;11.968;2022-12-18T00:42:47;-5.80;99.90
18043;DHT22;9146;48.074;11.968;2022-12-18T00:45:26;-5.80;99.90
18043;DHT22;9146;48.074;11.968;2022-12-18T00:47:55;-5.80;99.90
18043;DHT22;9146;48.074;11.968;2022-12-18T00:50:23;-5.70;99.90
18043;DHT22;9146;48.074;11.968;2022-12-18T00:52:51;-5.70;99.90
18043;DHT22;9146;48.074;11.968;2022-12-18T00:55:18;-5.70;99.90
18043;DHT22;9146;48.074;11.968;2022-12-18T00:57:45;-5.70;99.90
18043;DHT22;9146;48.074;11.968;2022-12-18T01:00:14;-5.70;99.90
18043;DHT22;9146;48.074;11.968;2022-12-18T01:02:41;-5.70;99.90
18043;DHT22;9146;48.074;11.968;2022-12-18T01:05:12;-5.70;99.90
18043;DHT22;9146;48.074;11.968;2022-12-18T01:07:39;-5.60;99.90
18043;DHT22;9146;48.074;11.968;2022-12-18T01:10:07;-5.60;99.90
18043;DHT22;9146;48.074;11.968;2022-12-18T01:12:35;-5.60;99.90
18043;DHT22;9146;48.074;11.968;2022-12-18T01:15:03;-5.60;99.90
18043;DHT22;9146;48.074;11.968;2022-12-18T01:17:30;-5.60;99.90
18043;DHT22;9146;48.074;11.968;2022-12-18T01:19:57;-5.60;99.90
18043;DHT22;9146;48.074;11.968;2022-12-18T01:22:26;-5.60;99.90
18043;DHT22;9146;48.074;11.968;2022-12-18T01:24:53;-5.60;99.90
18043;DHT22;9146;48.074;11.968;2022-12-18T01:27:20;-5.60;99.90
18043;DHT22;9146;48.074;11.968;2022-12-18T01:29:47;-5.60;99.90
18043;DHT22;9146;48.074;11.968;2022-12-18T01:32:15;-5.60;99.90
18043;DHT22;9146;48.074;11.968;2022-12-18T01:34:42;-5.60;99.90
18043;DHT22;9146;48.074;11.968;2022-12-18T01:37:09;-5.60;99.90
18043;DHT22;9146;48.074;11.968;2022-12-18T01:39:38;-5.60;99.90
18043;DHT22;9146;48.074;11.968;2022-12-18T01:42:09;-5.60;99.90
18043;DHT22;9146;48.074;11.968;2022-12-18T01:45:01;-5.60;99.90
18043;DHT22;9146;48.074;11.968;2022-12-18T01:47:46;-5.60;99.90
18043;DHT22;9146;48.074;11.968;2022-12-18T01:50:16;-5.60;99.90
18043;DHT22;9146;48.074;11.968;2022-12-18T01:52:45;-5.60;99.90
18043;DHT22;9146;48.074;11.968;2022-12-18T01:55:17;-5.60;99.90
18043;DHT22;9146;48.074;11.968;2022-12-18T01:57:44;-5.60;99.90
18043;DHT22;9146;48.074;11.968;2022-12-18T02:00:14;-5.60;99.90
18043;DHT22;9146;48.074;11.968;2022-12-18T02:02:43;-5.60;99.90
18043;DHT22;9146;48.074;11.968;2022-12-18T02:05:12;-5.60;99.90
18043;DHT22;9146;48.074;11.968;2022-12-18T02:07:45;-5.60;99.90
18043;DHT22;9146;48.074;11.968;2022-12-18T02:10:24;-5.60;99.90
18043;DHT22;9146;48.074;11.968;2022-12-18T02:13:00;-5.60;99.90
18043;DHT22;9146;48.074;11.968;2022-12-18T02:15:34;-5.60;99.90
18043;DHT22;9146;48.074;11.968;2022-12-18T02:18:06;-5.60;99.90
18043;DHT22;9146;48.074;11.968;2022-12-18T02:20:38;-5.60;99.90
18043;DHT22;9146;48.074;11.968;2022-12-18T02:23:13;-5.60;99.90
18043;DHT22;9146;48.074;11.968;2022-12-18T02:26:05;-5.60;99.90
18043;DHT22;9146;48.074;11.968;2022-12-18T02:28:36;-5.60;99.90
18043;DHT22;9146;48.074;11.968;2022-12-18T02:31:11;-5.60;99.90
18043;DHT22;9146;48.074;11.968;2022-12-18T02:33:39;-5.60;99.90
18043;DHT22;9146;48.074;11.968;2022-12-18T02:36:08;-5.60;99.90
18043;DHT22;9146;48.074;11.968;2022-12-18T02:38:36;-5.70;99.90
18043;DHT22;9146;48.074;11.968;2022-12-18T02:41:05;-5.70;99.90
18043;DHT22;9146;48.074;11.968;2022-12-18T02:43:32;-5.70;99.90
18043;DHT22;9146;48.074;11.968;2022-12-18T02:48:43;-5.70;99.90
18043;DHT22;9146;48.074;11.968;2022-12-18T02:51:17;-5.70;99.90
18043;DHT22;9146;48.074;11.968;2022-12-18T02:53:51;-5.70;99.90
18043;DHT22;9146;48.074;11.968;2022-12-18T02:56:25;-5.70;99.90
18043;DHT22;9146;48.074;11.968;2022-12-18T02:58:58;-5.70;99.90
18043;DHT22;9146;48.074;11.968;2022-12-18T03:01:33;-5.70;99.90
18043;DHT22;9146;48.074;11.968;2022-12-18T03:04:08;-5.60;99.90
18043;DHT22;9146;48.074;11.968;2022-12-18T03:06:39;-5.60;99.90
18043;DHT22;9146;48.074;11.968;2022-12-18T03:09:10;-5.60;99.90
18043;DHT22;9146;48.074;11.968;2022-12-18T03:11:43;-5.60;99.90
18043;DHT22;9146;48.074;11.968;2022-12-18T03:14:30;-5.60;99.90
18043;DHT22;9146;48.074;11.968;2022-12-18T03:17:02;-5.60;99.90
18043;DHT22;9146;48.074;11.968;2022-12-18T03:19:32;-5.60;99.90
18043;DHT22;9146;48.074;11.968;2022-12-18T03:22:02;-5.60;99.90
18043;DHT22;9146;48.074;11.968;2022-12-18T03:24:31;-5.60;99.90
18043;DHT22;9146;48.074;11.968;2022-12-18T03:27:02;-5.60;99.90
18043;DHT22;9146;48.074;11.968;2022-12-18T03:29:35;-5.60;99.90
18043;DHT22;9146;48.074;11.968;2022-12-18T03:32:07;-5.60;99.90
18043;DHT22;9146;48.074;11.968;2022-12-18T03:34:38;-5.60;99.90
18043;DHT22;9146;48.074;11.968;2022-12-18T03:37:07;-5.60;99.90
18043;DHT22;9146;48.074;11.968;2022-12-18T03:39:34;-5.60;99.90
18043;DHT22;9146;48.074;11.968;2022-12-18T03:42:05;-5.60;99.90
18043;DHT22;9146;48.074;11.968;2022-12-18T03:44:39;-5.60;99.90
18043;DHT22;9146;48.074;11.968;2022-12-18T03:47:10;-5.60;99.90
18043;DHT22;9146;48.074;11.968;2022-12-18T03:49:42;-5.60;99.90
18043;DHT22;9146;48.074;11.968;2022-12-18T03:52:17;-5.60;99.90
18043;DHT22;9146;48.074;11.968;2022-12-18T03:54:47;-5.60;99.90
18043;DHT22;9146;48.074;11.968;2022-12-18T03:57:18;-5.60;99.90
18043;DHT22;9146;48.074;11.968;2022-12-18T03:59:48;-5.60;99.90
18043;DHT22;9146;48.074;11.968;2022-12-18T04:02:17;-5.60;99.90
18043;DHT22;9146;48.074;11.968;2022-12-18T04:04:44;-5.60;99.90
18043;DHT22;9146;48.074;11.968;2022-12-18T04:07:13;-5.60;99.90
18043;DHT22;9146;48.074;11.968;2022-12-18T04:09:41;-5.60;99.90
18043;DHT22;9146;48.074;11.968;2022-12-18T04:12:10;-5.60;99.90
18043;DHT22;9146;48.074;11.968;2022-12-18T04:14:38;-5.60;99.90
18043;DHT22;9146;48.074;11.968;2022-12-18T04:17:05;-5.70;99.90
18043;DHT22;9146;48.074;11.968;2022-12-18T04:19:32;-5.60;99.90
18043;DHT22;9146;48.074;11.968;2022-12-18T04:21:59;-5.60;99.90
18043;DHT22;9146;48.074;11.968;2022-12-18T04:24:26;-5.60;99.90
18043;DHT22;9146;48.074;11.968;2022-12-18T04:26:53;-5.70;99.90
18043;DHT22;9146;48.074;11.968;2022-12-18T04:29:20;-5.70;99.90
18043;DHT22;9146;48.074;11.968;2022-12-18T04:31:48;-5.60;99.90
18043;DHT22;9146;48.074;11.968;2022-12-18T04:34:15;-5.60;99.90
18043;DHT22;9146;48.074;11.968;2022-12-18T04:36:42;-5.70;99.90
18043;DHT22;9146;48.074;11.968;2022-12-18T04:39:09;-5.60;99.90
18043;DHT22;9146;48.074;11.968;2022-12-18T04:41:36;-5.60;99.90
18043;DHT22;9146;48.074;11.968;2022-12-18T04:44:04;-5.60;99.90
18043;DHT22;9146;48.074;11.968;2022-12-18T04:46:31;-5.60;99.90
18043;DHT22;9146;48.074;11.968;2022-12-18T04:48:59;-5.60;99.90
18043;DHT22;9146;48.074;11.968;2022-12-18T04:51:26;-5.60;99.90
18043;DHT22;9146;48.074;11.968;2022-12-18T04:53:53;-5.60;99.90
18043;DHT22;9146;48.074;11.968;2022-12-18T04:56:20;-5.60;99.90
18043;DHT22;9146;48.074;11.968;2022-12-18T04:58:48;-5.60;99.90
18043;DHT22;9146;48.074;11.968;2022-12-18T05:01:16;-5.60;99.90
18043;DHT22;9146;48.074;11.968;2022-12-18T05:03:44;-5.70;99.90
18043;DHT22;9146;48.074;11.968;2022-12-18T05:06:12;-5.70;99.90
18043;DHT22;9146;48.074;11.968;2022-12-18T05:08:39;-5.70;99.90
18043;DHT22;9146;48.074;11.968;2022-12-18T05:11:08;-5.70;99.90
18043;DHT22;9146;48.074;11.968;2022-12-18T05:13:35;-5.70;99.90
18043;DHT22;9146;48.074;11.968;2022-12-18T05:16:04;-5.70;99.90
18043;DHT22;9146;48.074;11.968;2022-12-18T05:18:31;-5.70;99.90
18043;DHT22;9146;48.074;11.968;2022-12-18T05:20:58;-5.80;99.90
18043;DHT22;9146;48.074;11.968;2022-12-18T05:23:27;-5.80;99.90
18043;DHT22;9146;48.074;11.968;2022-12-18T05:25:56;-5.80;99.90
18043;DHT22;9146;48.074;11.968;2022-12-18T05:28:24;-5.80;99.90
18043;DHT22;9146;48.074;11.968;2022-12-18T05:30:53;-5.80;99.90
18043;DHT22;9146;48.074;11.968;2022-12-18T05:33:22;-5.80;99.90
18043;DHT22;9146;48.074;11.968;2022-12-18T05:35:50;-5.80;99.90
18043;DHT22;9146;48.074;11.968;2022-12-18T05:38:17;-5.90;99.90
18043;DHT22;9146;48.074;11.968;2022-12-18T05:40:47;-5.90;99.90
18043;DHT22;9146;48.074;11.968;2022-12-18T05:43:14;-5.90;99.90
18043;DHT22;9146;48.074;11.968;2022-12-18T05:45:41;-6.00;99.90
18043;DHT22;9146;48.074;11.968;2022-12-18T05:48:08;-6.00;99.90
18043;DHT22;9146;48.074;11.968;2022-12-18T05:50:40;-6.00;99.90
18043;DHT22;9146;48.074;11.968;2022-12-18T05:53:08;-6.10;99.90
18043;DHT22;9146;48.074;11.968;2022-12-18T05:55:37;-6.10;99.90
18043;DHT22;9146;48.074;11.968;2022-12-18T05:58:09;-6.10;99.90
18043;DHT22;9146;48.074;11.968;2022-12-18T06:00:38;-6.10;99.90
18043;DHT22;9146;48.074;11.968;2022-12-18T06:03:05;-6.10;99.90
18043;DHT22;9146;48.074;11.968;2022-12-18T06:05:34;-6.10;99.90
18043;DHT22;9146;48.074;11.968;2022-12-18T06:08:02;-6.10;99.90
18043;DHT22;9146;48.074;11.968;2022-12-18T06:10:30;-6.20;99.90
18043;DHT22;9146;48.074;11.968;2022-12-18T06:12:57;-6.20;99.90
18043;DHT22;9146;48.074;11.968;2022-12-18T06:15:27;-6.20;99.90
18043;DHT22;9146;48.074;11.968;2022-12-18T06:17:55;-6.20;99.90
18043;DHT22;9146;48.074;11.968;2022-12-18T06:20:22;-6.20;99.90
18043;DHT22;9146;48.074;11.968;2022-12-18T06:22:49;-6.20;99.90
18043;DHT22;9146;48.074;11.968;2022-12-18T06:25:16;-6.20;99.90
18043;DHT22;9146;48.074;11.968;2022-12-18T06:27:43;-6.30;99.90
18043;DHT22;9146;48.074;11.968;2022-12-18T06:30:11;-6.30;99.90
18043;DHT22;9146;48.074;11.968;2022-12-18T06:32:40;-6.30;99.90
18043;DHT22;9146;48.074;11.968;2022-12-18T06:35:07;-6.30;99.90
18043;DHT22;9146;48.074;11.968;2022-12-18T06:37:34;-6.30;99.90
18043;DHT22;9146;48.074;11.968;2022-12-18T06:40:01;-6.30;99.90
18043;DHT22;9146;48.074;11.968;2022-12-18T06:42:28;-6.30;99.90
18043;DHT22;9146;48.074;11.968;2022-12-18T06:44:56;-6.30;99.90
18043;DHT22;9146;48.074;11.968;2022-12-18T06:47:24;-6.30;99.90
18043;DHT22;9146;48.074;11.968;2022-12-18T06:49:52;-6.30;99.90
18043;DHT22;9146;48.074;11.968;2022-12-18T06:52:19;-6.30;99.90
18043;DHT22;9146;48.074;11.968;2022-12-18T06:54:46;-6.40;99.90
18043;DHT22;9146;48.074;11.968;2022-12-18T06:57:13;-6.40;99.90
18043;DHT22;9146;48.074;11.968;2022-12-18T06:59:40;-6.40;99.90
18043;DHT22;9146;48.074;11.968;2022-12-18T07:02:11;-6.40;99.90
18043;DHT22;9146;48.074;11.968;2022-12-18T07:04:38;-6.40;99.90
18043;DHT22;9146;48.074;11.968;2022-12-18T07:07:07;-6.40;99.90
18043;DHT22;9146;48.074;11.968;2022-12-18T07:09:34;-6.40;99.90
18043;DHT22;9146;48.074;11.968;2022-12-18T07:12:01;-6.40;99.90
18043;DHT22;9146;48.074;11.968;2022-12-18T07:14:28;-6.40;99.90
18043;DHT22;9146;48.074;11.968;2022-12-18T07:16:54;-6.40;99.90
18043;DHT22;9146;48.074;11.968;2022-12-18T07:19:21;-6.40;99.90
18043;DHT22;9146;48.074;11.968;2022-12-18T07:21:51;-6.40;99.90
18043;DHT22;9146;48.074;11.968;2022-12-18T07:24:19;-6.40;99.90
18043;DHT22;9146;48.074;11.968;2022-12-18T07:26:46;-6.30;99.90
18043;DHT22;9146;48.074;11.968;2022-12-18T07:29:13;-6.40;99.90
18043;DHT22;9146;48.074;11.968;2022-12-18T07:31:40;-6.30;99.90
18043;DHT22;9146;48.074;11.968;2022-12-18T07:34:10;-6.30;99.90
18043;DHT22;9146;48.074;11.968;2022-12-18T07:36:37;-6.30;99.90
18043;DHT22;9146;48.074;11.968;2022-12-18T07:39:04;-6.30;99.90
18043;DHT22;9146;48.074;11.968;2022-12-18T07:41:32;-6.30;99.90
18043;DHT22;9146;48.074;11.968;2022-12-18T07:43:59;-6.30;99.90
18043;DHT22;9146;48.074;11.968;2022-12-18T07:46:26;-6.30;99.90
18043;DHT22;9146;48.074;11.968;2022-12-18T07:48:53;-6.30;99.90
18043;DHT22;9146;48.074;11.968;2022-12-18T07:51:20;-6.30;99.90
18043;DHT22;9146;48.074;11.968;2022-12-18T07:53:47;-6.20;99.90
18043;DHT22;9146;48.074;11.968;2022-12-18T07:56:14;-6.20;99.90
18043;DHT22;9146;48.074;11.968;2022-12-18T07:58:43;-6.20;99.90
18043;DHT22;9146;48.074;11.968;2022-12-18T08:01:15;-6.20;99.90
18043;DHT22;9146;48.074;11.968;2022-12-18T08:03:42;-6.20;99.90
18043;DHT22;9146;48.074;11.968;2022-12-18T08:06:10;-6.20;99.90
18043;DHT22;9146;48.074;11.968;2022-12-18T08:08:37;-6.20;99.90
18043;DHT22;9146;48.074;11.968;2022-12-18T08:11:05;-6.20;99.90
18043;DHT22;9146;48.074;11.968;2022-12-18T08:13:32;-6.30;99.90
18043;DHT22;9146;48.074;11.968;2022-12-18T08:16:02;-6.30;99.90
18043;DHT22;9146;48.074;11.968;2022-12-18T08:18:31;-6.30;99.90
18043;DHT22;9146;48.074;11.968;2022-12-18T08:21:08;-6.30;99.90
18043;DHT22;9146;48.074;11.968;2022-12-18T08:23:37;-6.20;99.90
18043;DHT22;9146;48.074;11.968;2022-12-18T08:26:04;-6.10;99.90
18043;DHT22;9146;48.074;11.968;2022-12-18T08:28:31;-6.10;99.90
18043;DHT22;9146;48.074;11.968;2022-12-18T08:30:59;-5.90;99.90
18043;DHT22;9146;48.074;11.968;2022-12-18T08:33:27;-5.90;99.90
18043;DHT22;9146;48.074;11.968;2022-12-18T08:35:54;-5.80;99.90
18043;DHT22;9146;48.074;11.968;2022-12-18T08:38:21;-5.70;99.90
18043;DHT22;9146;48.074;11.968;2022-12-18T08:40:48;-5.80;99.90
18043;DHT22;9146;48.074;11.968;2022-12-18T08:43:15;-5.70;99.90
18043;DHT22;9146;48.074;11.968;2022-12-18T08:45:59;-5.70;99.90
18043;DHT22;9146;48.074;11.968;2022-12-18T08:48:28;-5.60;99.90
18043;DHT22;9146;48.074;11.968;2022-12-18T08:50:55;-5.60;99.90
18043;DHT22;9146;48.074;11.968;2022-12-18T08:53:22;-5.60;99.90
18043;DHT22;9146;48.074;11.968;2022-12-18T08:55:51;-5.50;99.90
18043;DHT22;9146;48.074;11.968;2022-12-18T08:58:19;-5.40;99.90
18043;DHT22;9146;48.074;11.968;2022-12-18T09:00:46;-5.30;99.90
18043;DHT22;9146;48.074;11.968;2022-12-18T09:03:13;-5.20;99.90
18043;DHT22;9146;48.074;11.968;2022-12-18T09:05:42;-5.20;99.90
18043;DHT22;9146;48.074;11.968;2022-12-18T09:08:09;-5.10;99.90
18043;DHT22;9146;48.074;11.968;2022-12-18T09:10:41;-5.20;99.90
18043;DHT22;9146;48.074;11.968;2022-12-18T09:13:10;-5.00;99.90
18043;DHT22;9146;48.074;11.968;2022-12-18T09:15:40;-4.90;99.90
18043;DHT22;9146;48.074;11.968;2022-12-18T09:18:08;-4.90;99.90
18043;DHT22;9146;48.074;11.968;2022-12-18T09:20:35;-4.90;99.90
18043;DHT22;9146;48.074;11.968;2022-12-18T09:23:04;-4.80;99.90
18043;DHT22;9146;48.074;11.968;2022-12-18T09:25:31;-4.70;99.90
18043;DHT22;9146;48.074;11.968;2022-12-18T09:27:58;-4.70;99.90
18043;DHT22;9146;48.074;11.968;2022-12-18T09:30:25;-4.60;99.90
18043;DHT22;9146;48.074;11.968;2022-12-18T09:32:53;-4.70;99.90
18043;DHT22;9146;48.074;11.968;2022-12-18T09:35:21;-4.60;99.90
18043;DHT22;9146;48.074;11.968;2022-12-18T09:37:48;-4.60;99.90
18043;DHT22;9146;48.074;11.968;2022-12-18T09:40:19;-4.60;99.90
18043;DHT22;9146;48.074;11.968;2022-12-18T09:42:49;-4.60;99.90
18043;DHT22;9146;48.074;11.968;2022-12-18T09:45:18;-4.50;99.90
18043;DHT22;9146;48.074;11.968;2022-12-18T09:47:46;-4.50;99.90
18043;DHT22;9146;48.074;11.968;2022-12-18T09:50:22;-4.40;99.90
18043;DHT22;9146;48.074;11.968;2022-12-18T09:52:54;-4.40;99.90
18043;DHT22;9146;48.074;11.968;2022-12-18T09:55:26;-4.30;99.90
18043;DHT22;9146;48.074;11.968;2022-12-18T09:57:58;-4.20;99.90
18043;DHT22;9146;48.074;11.968;2022-12-18T10:00:28;-4.10;99.90
18043;DHT22;9146;48.074;11.968;2022-12-18T10:03:00;-4.10;99.90
18043;DHT22;9146;48.074;11.968;2022-12-18T10:05:34;-4.10;99.90
18043;DHT22;9146;48.074;11.968;2022-12-18T10:08:07;-4.00;99.90
18043;DHT22;9146;48.074;11.968;2022-12-18T10:10:43;-4.00;99.90
18043;DHT22;9146;48.074;11.968;2022-12-18T10:13:22;-4.00;99.90
18043;DHT22;9146;48.074;11.968;2022-12-18T10:16:08;-4.00;99.90
18043;DHT22;9146;48.074;11.968;2022-12-18T10:19:01;-4.10;99.90
18043;DHT22;9146;48.074;11.968;2022-12-18T10:21:36;-4.10;99.90
18043;DHT22;9146;48.074;11.968;2022-12-18T10:24:16;-4.20;99.90
18043;DHT22;9146;48.074;11.968;2022-12-18T10:26:47;-4.20;99.90
18043;DHT22;9146;48.074;11.968;2022-12-18T10:29:15;-4.20;99.90
18043;DHT22;9146;48.074;11.968;2022-12-18T10:31:43;-4.00;99.90
18043;DHT22;9146;48.074;11.968;2022-12-18T10:34:10;-4.00;99.90
18043;DHT22;9146;48.074;11.968;2022-12-18T10:36:42;-3.80;99.90
18043;DHT22;9146;48.074;11.968;2022-12-18T10:39:17;-3.60;99.90
18043;DHT22;9146;48.074;11.968;2022-12-18T10:41:46;-3.50;99.90
18043;DHT22;9146;48.074;11.968;2022-12-18T10:44:19;-3.40;99.90
18043;DHT22;9146;48.074;11.968;2022-12-18T10:46:48;-3.40;99.90
18043;DHT22;9146;48.074;11.968;2022-12-18T10:49:21;-3.30;99.90
18043;DHT22;9146;48.074;11.968;2022-12-18T10:51:49;-3.30;99.90
18043;DHT22;9146;48.074;11.968;2022-12-18T10:54:18;-3.20;99.90
18043;DHT22;9146;48.074;11.968;2022-12-18T10:56:49;-3.10;99.90
18043;DHT22;9146;48.074;11.968;2022-12-18T10:59:17;-3.00;99.90
18043;DHT22;9146;48.074;11.968;2022-12-18T11:01:47;-2.90;99.90
18043;DHT22;9146;48.074;11.968;2022-12-18T11:04:21;-2.80;99.90
18043;DHT22;9146;48.074;11.968;2022-12-18T11:06:59;-2.80;99.90
18043;DHT22;9146;48.074;11.968;2022-12-18T11:09:28;-2.80;99.90
18043;DHT22;9146;48.074;11.968;2022-12-18T11:11:59;-2.80;99.90
18043;DHT22;9146;48.074;11.968;2022-12-18T11:14:28;-2.80;99.90
18043;DHT22;9146;48.074;11.968;2022-12-18T11:16:57;-2.80;99.90
18043;DHT22;9146;48.074;11.968;2022-12-18T11:19:31;-2.70;99.90
18043;DHT22;9146;48.074;11.968;2022-12-18T11:21:59;-2.70;99.90
18043;DHT22;9146;48.074;11.968;2022-12-18T11:24:31;-2.70;99.90
18043;DHT22;9146;48.074;11.968;2022-12-18T11:27:03;-2.70;99.90
18043;DHT22;9146;48.074;11.968;2022-12-18T11:29:35;-2.80;99.90
18043;DHT22;9146;48.074;11.968;2022-12-18T11:32:34;-2.80;99.90
18043;DHT22;9146;48.074;11.968;2022-12-18T11:35:10;-2.80;99.90
18043;DHT22;9146;48.074;11.968;2022-12-18T11:37:40;-2.80;99.90
18043;DHT22;9146;48.074;11.968;2022-12-18T11:40:13;-2.80;99.90
18043;DHT22;9146;48.074;11.968;2022-12-18T11:42:47;-2.80;99.90
18043;DHT22;9146;48.074;11.968;2022-12-18T11:45:27;-2.80;99.90
18043;DHT22;9146;48.074;11.968;2022-12-18T11:47:58;-2.80;99.90
18043;DHT22;9146;48.074;11.968;2022-12-18T11:50:30;-2.90;99.90
18043;DHT22;9146;48.074;11.968;2022-12-18T11:52:58;-2.90;99.90
18043;DHT22;9146;48.074;11.968;2022-12-18T11:55:32;-2.90;99.90
18043;DHT22;9146;48.074;11.968;2022-12-18T11:58:11;-2.80;99.90
18043;DHT22;9146;48.074;11.968;2022-12-18T12:00:45;-2.80;99.90
18043;DHT22;9146;48.074;11.968;2022-12-18T12:06:17;-2.90;99.90
18043;DHT22;9146;48.074;11.968;2022-12-18T12:08:57;-3.10;99.90
18043;DHT22;9146;48.074;11.968;2022-12-18T12:11:33;-3.00;99.90
18043;DHT22;9146;48.074;11.968;2022-12-18T12:14:22;-3.10;99.90
18043;DHT22;9146;48.074;11.968;2022-12-18T12:16:57;-3.10;99.90
18043;DHT22;9146;48.074;11.968;2022-12-18T12:19:36;-3.20;99.90
18043;DHT22;9146;48.074;11.968;2022-12-18T12:22:13;-3.30;99.90
18043;DHT22;9146;48.074;11.968;2022-12-18T12:24:53;-3.30;99.90
18043;DHT22;9146;48.074;11.968;2022-12-18T12:27:28;-3.40;99.90
18043;DHT22;9146;48.074;11.968;2022-12-18T12:30:04;-3.40;99.90
18043;DHT22;9146;48.074;11.968;2022-12-18T12:32:54;-3.50;99.90
18043;DHT22;9146;48.074;11.968;2022-12-18T12:35:31;-3.50;99.90
18043;DHT22;9146;48.074;11.968;2022-12-18T12:38:06;-3.50;99.90
18043;DHT22;9146;48.074;11.968;2022-12-18T12:40:36;-3.50;99.90
18043;DHT22;9146;48.074;11.968;2022-12-18T12:43:19;-3.50;99.90
18043;DHT22;9146;48.074;11.968;2022-12-18T12:45:50;-3.50;99.90
18043;DHT22;9146;48.074;11.968;2022-12-18T12:48:29;-3.60;99.90
18043;DHT22;9146;48.074;11.968;2022-12-18T12:51:00;-3.60;99.90
18043;DHT22;9146;48.074;11.968;2022-12-18T12:53:31;-3.70;99.90
18043;DHT22;9146;48.074;11.968;2022-12-18T12:56:00;-3.70;99.90
18043;DHT22;9146;48.074;11.968;2022-12-18T12:58:34;-3.70;99.90
18043;DHT22;9146;48.074;11.968;2022-12-18T13:01:12;-3.80;99.90
18043;DHT22;9146;48.074;11.968;2022-12-18T13:03:48;-3.80;99.90
18043;DHT22;9146;48.074;11.968;2022-12-18T13:06:27;-3.80;99.90
18043;DHT22;9146;48.074;11.968;2022-12-18T13:08:58;-3.80;99.90
18043;DHT22;9146;48.074;11.968;2022-12-18T13:11:37;-3.80;99.90
18043;DHT22;9146;48.074;11.968;2022-12-18T13:14:26;-3.80;99.90
18043;DHT22;9146;48.074;11.968;2022-12-18T13:17:28;-3.80;99.90
18043;DHT22;9146;48.074;11.968;2022-12-18T13:20:12;-3.70;99.90
18043;DHT22;9146;48.074;11.968;2022-12-18T13:22:42;-3.70;99.90
18043;DHT22;9146;48.074;11.968;2022-12-18T13:25:31;-3.70;99.90
18043;DHT22;9146;48.074;11.968;2022-12-18T13:28:05;-3.70;99.90
18043;DHT22;9146;48.074;11.968;2022-12-18T13:30:48;-3.60;99.90
18043;DHT22;9146;48.074;11.968;2022-12-18T13:33:47;-3.60;99.90
18043;DHT22;9146;48.074;11.968;2022-12-18T13:36:27;-3.60;99.90
18043;DHT22;9146;48.074;11.968;2022-12-18T13:42:31;-3.60;99.90
18043;DHT22;9146;48.074;11.968;2022-12-18T13:45:41;-3.60;99.90
18043;DHT22;9146;48.074;11.968;2022-12-18T13:48:17;-3.80;99.90
18043;DHT22;9146;48.074;11.968;2022-12-18T13:50:55;-3.80;99.90
18043;DHT22;9146;48.074;11.968;2022-12-18T13:53:27;-4.00;99.90
18043;DHT22;9146;48.074;11.968;2022-12-18T13:55:54;-4.00;99.90
18043;DHT22;9146;48.074;11.968;2022-12-18T13:58:21;-4.10;99.90
18043;DHT22;9146;48.074;11.968;2022-12-18T14:00:48;-4.10;99.90
18043;DHT22;9146;48.074;11.968;2022-12-18T14:03:18;-4.20;99.90
18043;DHT22;9146;48.074;11.968;2022-12-18T14:05:46;-4.30;99.90
18043;DHT22;9146;48.074;11.968;2022-12-18T14:08:20;-4.30;99.90
18043;DHT22;9146;48.074;11.968;2022-12-18T14:10:48;-4.40;99.90
18043;DHT22;9146;48.074;11.968;2022-12-18T14:13:21;-4.40;99.90
18043;DHT22;9146;48.074;11.968;2022-12-18T14:15:50;-4.50;99.90
18043;DHT22;9146;48.074;11.968;2022-12-18T14:18:21;-4.60;99.90
18043;DHT22;9146;48.074;11.968;2022-12-18T14:20:50;-4.60;99.90
18043;DHT22;9146;48.074;11.968;2022-12-18T14:23:37;-4.60;99.90
18043;DHT22;9146;48.074;11.968;2022-12-18T14:26:21;-4.70;99.90
18043;DHT22;9146;48.074;11.968;2022-12-18T14:28:48;-4.80;99.90
18043;DHT22;9146;48.074;11.968;2022-12-18T14:31:19;-4.80;99.90
18043;DHT22;9146;48.074;11.968;2022-12-18T14:33:46;-4.90;99.90
18043;DHT22;9146;48.074;11.968;2022-12-18T14:36:16;-5.00;99.90
18043;DHT22;9146;48.074;11.968;2022-12-18T14:38:48;-5.00;99.90
18043;DHT22;9146;48.074;11.968;2022-12-18T14:41:17;-5.00;99.90
18043;DHT22;9146;48.074;11.968;2022-12-18T14:43:45;-5.10;99.90
18043;DHT22;9146;48.074;11.968;2022-12-18T14:46:28;-5.10;99.90
18043;DHT22;9146;48.074;11.968;2022-12-18T14:48:56;-5.20;99.90
18043;DHT22;9146;48.074;11.968;2022-12-18T14:51:25;-5.20;99.90
18043;DHT22;9146;48.074;11.968;2022-12-18T14:53:56;-5.20;99.90
18043;DHT22;9146;48.074;11.968;2022-12-18T14:56:25;-5.30;99.90
18043;DHT22;9146;48.074;11.968;2022-12-18T14:58:55;-5.30;99.90
18043;DHT22;9146;48.074;11.968;2022-12-18T15:01:25;-5.40;99.90
18043;DHT22;9146;48.074;11.968;2022-12-18T15:03:53;-5.40;99.90
18043;DHT22;9146;48.074;11.968;2022-12-18T15:06:27;-5.50;99.90
18043;DHT22;9146;48.074;11.968;2022-12-18T15:08:57;-5.50;99.90
18043;DHT22;9146;48.074;11.968;2022-12-18T15:11:33;-5.50;99.90
18043;DHT22;9146;48.074;11.968;2022-12-18T15:14:22;-5.50;99.90
18043;DHT22;9146;48.074;11.968;2022-12-18T15:16:52;-5.60;99.90
18043;DHT22;9146;48.074;11.968;2022-12-18T15:19:20;-5.60;99.90
18043;DHT22;9146;48.074;11.968;2022-12-18T15:21:48;-5.70;99.90
18043;DHT22;9146;48.074;11.968;2022-12-18T15:24:22;-5.70;99.90
18043;DHT22;9146;48.074;11.968;2022-12-18T15:26:51;-5.80;99.90
18043;DHT22;9146;48.074;11.968;2022-12-18T15:29:19;-5.80;99.90
18043;DHT22;9146;48.074;11.968;2022-12-18T15:32:02;-5.80;99.90
18043;DHT22;9146;48.074;11.968;2022-12-18T15:34:30;-5.80;99.90
18043;DHT22;9146;48.074;11.968;2022-12-18T15:36:58;-5.90;99.90
18043;DHT22;9146;48.074;11.968;2022-12-18T15:39:26;-5.90;99.90
18043;DHT22;9146;48.074;11.968;2022-12-18T15:41:53;-5.90;99.90
18043;DHT22;9146;48.074;11.968;2022-12-18T15:44:37;-5.90;99.90
18043;DHT22;9146;48.074;11.968;2022-12-18T15:47:10;-5.90;99.90
18043;DHT22;9146;48.074;11.968;2022-12-18T15:49:38;-5.90;99.90
18043;DHT22;9146;48.074;11.968;2022-12-18T15:52:05;-5.90;99.90
18043;DHT22;9146;48.074;11.968;2022-12-18T15:54:34;-5.90;99.90
18043;DHT22;9146;48.074;11.968;2022-12-18T15:57:26;-5.90;99.90
18043;DHT22;9146;48.074;11.968;2022-12-18T15:59:55;-6.00;99.90
18043;DHT22;9146;48.074;11.968;2022-12-18T16:02:24;-5.90;99.90